Time;durP1;ratioP1;P1;durP2;ratioP2;P2;SDS_P1;SDS_P2;PMS_P1;PMS_P2;Temp;Humidity;BMP_temperature;BMP_pressure;BME280_temperature;BME280_humidity;BME280_pressure;Samples;Min_cycle;Max_cycle;Signal;HPM_P1;HPM_P2
2020/12/19 09:12:14;;;;;;;22.27;9.53;;;;;;;3.72;78.62;101507.11;1784501;79;23088;-73
2020/12/19 09:14:43;;;;;;;26.40;11.10;;;;;;;3.68;78.66;101511.06;1753122;80;21252;-69
2020/12/19 09:17:10;;;;;;;24.95;10.68;;;;;;;3.73;78.61;101508.83;1755394;80;21176;-71
2020/12/19 09:19:37;;;;;;;24.00;10.58;;;;;;;3.81;78.58;101504.99;1753971;81;21192;-70
2020/12/19 09:22:05;;;;;;;26.05;10.60;;;;;;;3.86;78.56;101510.89;1751657;81;21265;-67
2020/12/19 09:24:32;;;;;;;25.17;10.75;;;;;;;3.92;78.57;101514.48;1768405;80;21931;-70
2020/12/19 09:27:00;;;;;;;22.73;10.50;;;;;;;3.95;78.45;101514.23;1752099;81;21184;-68
2020/12/19 09:29:27;;;;;;;24.92;11.25;;;;;;;3.97;78.41;101513.61;1751501;82;21378;-68
2020/12/19 09:31:55;;;;;;;25.97;10.80;;;;;;;4.01;78.36;101516.92;1751927;81;21882;-68
2020/12/19 09:34:22;;;;;;;22.82;10.15;;;;;;;4.07;78.31;101513.20;1751925;81;21188;-64
2020/12/19 09:36:50;;;;;;;22.98;10.40;;;;;;;4.14;78.15;101510.34;1751778;81;21895;-64
2020/12/19 09:39:17;;;;;;;25.88;11.48;;;;;;;4.17;78.01;101512.42;1752096;80;21207;-64
2020/12/19 09:41:45;;;;;;;23.98;11.55;;;;;;;4.19;77.96;101511.80;1751953;82;21142;-66
2020/12/19 09:44:13;;;;;;;25.35;11.85;;;;;;;4.21;77.89;101507.97;1749670;80;21156;-67
2020/12/19 09:46:40;;;;;;;29.37;12.35;;;;;;;4.23;77.81;101511.41;1766625;80;21879;-66
2020/12/19 09:49:07;;;;;;;27.17;11.35;;;;;;;4.26;77.84;101511.16;1781638;80;21180;-67
2020/12/19 09:51:35;;;;;;;29.52;13.13;;;;;;;4.29;77.64;101522.24;1781506;80;21161;-69
2020/12/19 09:54:02;;;;;;;29.77;13.30;;;;;;;4.26;77.43;101517.94;1772990;80;21409;-70
2020/12/19 09:56:38;;;;;;;30.95;14.30;;;;;;;4.20;77.46;101513.03;1751793;80;21172;-70
2020/12/19 09:59:05;;;;;;;29.35;13.45;;;;;;;4.19;77.59;101513.16;1754616;80;21370;-65
2020/12/19 10:01:32;;;;;;;29.42;13.22;;;;;;;4.22;77.59;101515.13;1756077;80;21834;-66
2020/12/19 10:04:00;;;;;;;29.40;12.95;;;;;;;4.26;77.67;101511.65;1756343;80;21163;-69
2020/12/19 10:06:27;;;;;;;33.08;14.73;;;;;;;4.33;77.62;101511.50;1755612;80;21205;-66
2020/12/19 10:08:55;;;;;;;33.78;16.45;;;;;;;4.38;77.55;101507.89;1754406;80;21804;-67
2020/12/19 10:11:23;;;;;;;36.08;16.40;;;;;;;4.43;77.51;101507.01;1751364;81;21516;-72
2020/12/19 10:13:50;;;;;;;32.00;15.60;;;;;;;4.45;77.44;101507.73;1774966;80;21137;-65
2020/12/19 10:16:17;;;;;;;33.92;14.50;;;;;;;4.49;77.43;101510.55;1777019;80;21899;-67
2020/12/19 10:18:45;;;;;;;44.77;17.50;;;;;;;4.49;77.14;101512.41;1776901;80;21126;-67
2020/12/19 10:21:12;;;;;;;39.53;18.23;;;;;;;4.46;77.14;101506.74;1777050;80;21849;-68
2020/12/19 10:23:39;;;;;;;45.00;19.90;;;;;;;4.46;77.23;101508.10;1777132;80;21363;-68
2020/12/19 10:26:10;;;;;;;47.53;19.82;;;;;;;4.46;77.30;101502.18;1776998;80;21141;-68
2020/12/19 10:28:37;;;;;;;45.15;20.02;;;;;;;4.48;77.31;101509.33;1757714;80;21759;-65
2020/12/19 10:31:05;;;;;;;48.60;19.98;;;;;;;4.50;77.40;101512.77;1777029;80;21883;-63
2020/12/19 10:33:32;;;;;;;47.50;20.37;;;;;;;4.52;77.46;101507.58;1755162;80;21830;-63
2020/12/19 10:36:00;;;;;;;45.00;20.43;;;;;;;4.56;77.31;101510.92;1753259;80;21140;-64
2020/12/19 10:38:28;;;;;;;46.50;20.95;;;;;;;4.56;77.29;101507.71;1753346;80;21333;-66
2020/12/19 10:40:57;;;;;;;40.98;18.75;;;;;;;4.53;77.25;101507.94;1753200;80;21262;-64
2020/12/19 10:43:24;;;;;;;42.43;18.52;;;;;;;4.52;77.26;101506.72;1753626;80;21155;-63
2020/12/19 10:45:52;;;;;;;46.37;17.95;;;;;;;4.46;77.24;101501.31;1753397;80;21155;-61
2020/12/19 10:48:19;;;;;;;43.38;20.20;;;;;;;4.45;77.37;101512.67;1753469;80;21162;-62
2020/12/19 10:50:46;;;;;;;43.40;19.30;;;;;;;4.46;77.45;101504.03;1753561;80;21397;-64
2020/12/19 10:53:14;;;;;;;38.73;16.90;;;;;;;4.48;77.58;101506.61;1753602;80;21270;-64
2020/12/19 10:55:41;;;;;;;34.60;16.42;;;;;;;4.50;77.62;101504.13;1753261;80;21934;-66
2020/12/19 10:58:09;;;;;;;32.28;16.05;;;;;;;4.51;77.60;101499.56;1753281;80;21960;-64
2020/12/19 11:00:36;;;;;;;39.13;15.95;;;;;;;4.51;77.56;101496.35;1763371;80;21511;-68
2020/12/19 11:03:04;;;;;;;38.13;15.08;;;;;;;4.50;77.47;101497.34;1762960;79;21250;-62
2020/12/19 11:05:31;;;;;;;37.53;16.93;;;;;;;4.51;77.46;101495.00;1753330;81;21793;-67
2020/12/19 11:08:02;;;;;;;40.25;17.67;;;;;;;4.52;77.54;101496.72;1753160;80;21421;-67
2020/12/19 11:10:33;;;;;;;39.27;17.30;;;;;;;4.56;77.65;101501.42;1751456;80;21223;-70
2020/12/19 11:13:06;;;;;;;38.88;15.58;;;;;;;4.55;77.50;101496.95;1743746;80;21168;-67
2020/12/19 11:15:38;;;;;;;42.17;16.27;;;;;;;4.49;77.32;101494.27;1743875;80;21180;-69
2020/12/19 11:18:07;;;;;;;39.13;16.52;;;;;;;4.41;77.34;101500.84;1743923;80;21446;-67
2020/12/19 11:23:26;;;;;;;44.08;17.15;;;;;;;4.41;77.64;101499.00;1744622;80;21159;-64
2020/12/19 11:25:54;;;;;;;44.63;17.87;;;;;;;4.39;77.76;101502.34;1743827;80;21266;-62
2020/12/19 11:28:21;;;;;;;42.67;15.93;;;;;;;4.34;77.68;101509.15;1744104;80;21188;-62
2020/12/19 11:30:48;;;;;;;38.75;15.25;;;;;;;4.30;77.78;101509.91;1743970;82;21196;-63
2020/12/19 11:33:16;;;;;;;42.60;17.20;;;;;;;4.29;77.75;101509.54;1743891;80;21434;-62
2020/12/19 11:35:47;;;;;;;45.70;17.12;;;;;;;4.28;77.91;101504.24;1744086;81;21164;-62
2020/12/19 11:38:16;;;;;;;38.85;17.05;;;;;;;4.29;78.11;101510.89;1744137;80;21164;-63
2020/12/19 11:40:43;;;;;;;36.40;16.27;;;;;;;4.31;78.10;101508.05;1744189;80;21619;-67
2020/12/19 11:43:13;;;;;;;39.75;15.03;;;;;;;4.33;78.08;101512.86;1744310;81;21418;-68
2020/12/19 11:45:41;;;;;;;40.05;15.43;;;;;;;4.31;77.93;101513.48;1744266;80;21918;-66
2020/12/19 11:48:08;;;;;;;41.50;18.00;;;;;;;4.29;77.94;101516.32;1744314;82;21429;-66
2020/12/19 11:50:35;;;;;;;39.48;16.20;;;;;;;4.27;78.06;101512.02;1743549;81;21987;-61
2020/12/19 11:53:03;;;;;;;33.18;15.70;;;;;;;4.29;78.28;101514.97;1743144;80;21529;-63
2020/12/19 11:55:30;;;;;;;35.65;16.12;;;;;;;4.31;78.23;101506.20;1741226;80;21192;-62
2020/12/19 11:57:57;;;;;;;39.33;15.20;;;;;;;4.31;78.14;101510.27;1741803;81;21894;-62
2020/12/19 12:00:25;;;;;;;41.08;16.85;;;;;;;4.33;78.22;101517.78;1743675;80;21553;-61
2020/12/19 12:02:52;;;;;;;41.68;17.57;;;;;;;4.36;78.17;101510.73;1743785;81;21919;-61
2020/12/19 12:05:19;;;;;;;39.00;17.00;;;;;;;4.39;78.18;101509.62;1744064;81;21148;-63
2020/12/19 12:07:49;;;;;;;44.70;18.15;;;;;;;4.42;78.21;101503.93;1743265;80;21144;-62
2020/12/19 12:10:17;;;;;;;36.10;16.17;;;;;;;4.43;78.20;101512.44;1744335;80;21137;-63
2020/12/19 12:12:44;;;;;;;40.33;15.48;;;;;;;4.45;78.14;101501.81;1742068;81;21168;-63
2020/12/19 12:15:12;;;;;;;37.53;15.88;;;;;;;4.48;77.98;101503.90;1741535;82;21713;-65
2020/12/19 12:17:40;;;;;;;40.23;17.73;;;;;;;4.46;77.72;101498.11;1741628;82;21869;-66
2020/12/19 12:20:07;;;;;;;38.42;17.15;;;;;;;4.43;77.74;101505.16;1741733;82;21855;-64
2020/12/19 12:22:34;;;;;;;43.28;19.20;;;;;;;4.43;77.84;101504.30;1741720;82;21200;-69
2020/12/19 12:25:02;;;;;;;44.60;20.05;;;;;;;4.45;77.94;101511.80;1741721;82;21872;-64
2020/12/19 12:27:32;;;;;;;41.33;16.87;;;;;;;4.49;77.98;101503.77;1741646;81;21877;-66
2020/12/19 12:30:00;;;;;;;41.13;16.48;;;;;;;4.52;77.87;101511.64;1741680;81;21560;-66
2020/12/19 12:32:27;;;;;;;37.10;17.00;;;;;;;4.53;77.68;101519.30;1741215;81;21172;-65
2020/12/19 12:34:55;;;;;;;36.68;15.65;;;;;;;4.50;77.66;101512.27;1741384;81;21304;-68
2020/12/19 12:37:22;;;;;;;41.60;17.80;;;;;;;4.47;77.59;101523.39;1746730;80;21784;-68
2020/12/19 12:39:52;;;;;;;41.83;18.52;;;;;;;4.42;77.71;101510.22;1749776;82;21908;-64
2020/12/19 12:42:24;;;;;;;38.55;15.70;;;;;;;4.43;77.86;101513.79;1751221;81;21177;-70
2020/12/19 12:44:52;;;;;;;46.08;17.52;;;;;;;4.47;77.89;101517.97;1751311;81;21183;-61
2020/12/19 12:47:21;;;;;;;42.80;17.37;;;;;;;4.52;77.83;101514.36;1751110;80;21176;-61
2020/12/19 12:49:48;;;;;;;48.70;20.08;;;;;;;4.52;77.74;101519.79;1751244;80;21172;-62
2020/12/19 12:52:25;;;;;;;42.83;19.70;;;;;;;4.51;77.75;101511.28;1751061;80;21161;-66
2020/12/19 12:54:53;;;;;;;44.73;18.85;;;;;;;4.51;77.73;101516.70;1751400;82;21449;-66
2020/12/19 12:57:20;;;;;;;51.70;18.23;;;;;;;4.50;77.70;101516.84;1751078;81;21224;-68
2020/12/19 12:59:47;;;;;;;41.48;16.77;;;;;;;4.50;77.73;101510.92;1751131;81;21910;-63
2020/12/19 13:02:15;;;;;;;40.52;18.48;;;;;;;4.54;77.66;101514.23;1751074;80;21368;-64
2020/12/19 13:04:46;;;;;;;41.25;17.23;;;;;;;4.54;77.69;101511.52;1752720;80;21452;-66
2020/12/19 13:07:15;;;;;;;42.93;19.15;;;;;;;4.57;77.72;101522.14;1781637;79;21145;-63
2020/12/19 13:09:43;;;;;;;48.25;18.70;;;;;;;4.59;77.67;101516.95;1756760;80;21379;-65
2020/12/19 13:12:13;;;;;;;46.25;18.05;;;;;;;4.62;77.64;101528.03;1736553;81;21152;-64
2020/12/19 13:14:41;;;;;;;42.85;18.15;;;;;;;4.62;77.49;101520.75;1742093;81;21160;-65
2020/12/19 13:17:08;;;;;;;43.55;17.45;;;;;;;4.60;77.43;101529.52;1742213;82;21140;-64
2020/12/19 13:19:36;;;;;;;42.78;18.55;;;;;;;4.60;77.43;101527.30;1742287;81;21187;-65
2020/12/19 13:22:03;;;;;;;43.92;18.02;;;;;;;4.59;77.49;101536.44;1742230;82;21153;-64
2020/12/19 13:24:31;;;;;;;41.90;18.40;;;;;;;4.59;77.49;101531.87;1742211;81;21748;-67
2020/12/19 13:26:58;;;;;;;49.77;19.42;;;;;;;4.56;77.42;101528.06;1742228;82;21177;-62
2020/12/19 13:29:28;;;;;;;50.12;18.65;;;;;;;4.53;77.48;101528.30;1742211;81;21965;-65
2020/12/19 13:31:57;;;;;;;48.68;18.82;;;;;;;4.55;77.50;101530.88;1742090;81;21275;-68
2020/12/19 13:34:24;;;;;;;44.77;17.27;;;;;;;4.54;77.55;101532.73;1742158;81;21258;-67
2020/12/19 13:36:53;;;;;;;43.33;18.07;;;;;;;4.56;77.58;101532.63;1742304;81;21369;-67
2020/12/19 13:39:20;;;;;;;39.60;14.43;;;;;;;4.51;77.57;101527.56;1742307;81;21176;-67
2020/12/19 13:41:48;;;;;;;50.90;19.37;;;;;;;4.45;77.59;101527.59;1742248;81;21160;-68
2020/12/19 13:44:18;;;;;;;45.88;18.95;;;;;;;4.37;77.67;101524.67;1742533;82;21863;-65
2020/12/19 13:46:57;;;;;;;46.60;19.48;;;;;;;4.36;77.89;101529.73;1746623;80;21119;-65
2020/12/19 13:49:25;;;;;;;48.75;20.52;;;;;;;4.38;78.07;101525.53;1753168;80;21454;-66
2020/12/19 13:51:52;;;;;;;47.35;18.32;;;;;;;4.38;78.04;101518.75;1753342;81;21363;-66
2020/12/19 13:54:20;;;;;;;53.73;18.10;;;;;;;4.35;78.07;101527.15;1765461;80;21184;-64
2020/12/19 13:56:48;;;;;;;46.85;17.25;;;;;;;4.27;78.06;101520.16;1779222;79;21113;-65
2020/12/19 13:59:15;;;;;;;47.33;17.17;;;;;;;4.24;78.25;101526.70;1779191;80;21844;-66
2020/12/19 14:01:43;;;;;;;43.58;17.05;;;;;;;4.20;78.33;101519.81;1779013;80;21514;-65
2020/12/19 14:04:10;;;;;;;49.30;18.80;;;;;;;4.19;78.54;101524.01;1779054;80;21165;-63
2020/12/19 14:06:37;;;;;;;48.23;19.10;;;;;;;4.19;78.69;101522.66;1779249;80;21857;-62
2020/12/19 14:09:05;;;;;;;50.25;19.45;;;;;;;4.20;78.82;101530.66;1765827;80;21181;-62
2020/12/19 14:11:35;;;;;;;45.00;16.20;;;;;;;4.23;78.94;101526.83;1742255;81;21418;-62
2020/12/19 14:14:04;;;;;;;47.20;16.93;;;;;;;4.26;78.93;101524.72;1727657;81;21274;-65
2020/12/19 14:16:35;;;;;;;46.48;17.02;;;;;;;4.30;78.87;101528.89;1727599;81;21823;-72
2020/12/19 14:19:06;;;;;;;36.33;15.13;;;;;;;4.26;78.86;101534.70;1727573;81;21335;-66
2020/12/19 14:21:35;;;;;;;43.52;15.95;;;;;;;4.26;79.04;101533.35;1727649;81;21164;-65
2020/12/19 14:24:08;;;;;;;45.23;14.58;;;;;;;4.21;79.04;101535.59;1727695;81;21391;-64
2020/12/19 14:26:36;;;;;;;48.42;17.75;;;;;;;4.20;79.12;101535.23;1727692;81;21346;-69
2020/12/19 14:29:03;;;;;;;43.83;17.30;;;;;;;4.17;79.17;101539.55;1727814;81;21153;-67
2020/12/19 14:31:31;;;;;;;43.05;17.32;;;;;;;4.15;79.22;101538.33;1727615;81;21787;-65
2020/12/19 14:33:58;;;;;;;45.65;16.93;;;;;;;4.12;79.40;101547.58;1733502;82;21161;-70
2020/12/19 14:36:26;;;;;;;49.13;16.17;;;;;;;4.09;79.51;101541.55;1748081;80;21460;-69
2020/12/19 14:38:54;;;;;;;51.65;17.80;;;;;;;4.06;79.55;101544.52;1748206;80;21179;-63
2020/12/19 14:41:22;;;;;;;49.83;19.25;;;;;;;4.04;79.69;101541.08;1748161;82;21165;-63
2020/12/19 14:43:51;;;;;;;53.83;19.85;;;;;;;4.05;79.89;101551.80;1748584;81;21260;-63
2020/12/19 14:46:19;;;;;;;44.38;17.98;;;;;;;4.08;79.99;101556.09;1748639;80;21773;-62
2020/12/19 14:48:48;;;;;;;54.23;18.95;;;;;;;4.13;80.10;101552.52;1748348;82;21393;-60
2020/12/19 14:51:18;;;;;;;54.38;18.00;;;;;;;4.14;80.06;101551.03;1748197;82;21864;-61
2020/12/19 14:53:46;;;;;;;55.43;20.82;;;;;;;4.18;80.01;101557.55;1748152;81;21828;-62
2020/12/19 14:56:15;;;;;;;47.40;18.67;;;;;;;4.18;79.93;101554.84;1727052;82;21500;-66
2020/12/19 14:58:44;;;;;;;38.42;16.23;;;;;;;4.16;79.97;101548.68;1748186;80;22426;-67
2020/12/19 15:01:14;;;;;;;33.92;13.80;;;;;;;4.17;80.00;101553.12;1748060;80;21370;-65
2020/12/19 15:58:49;;;;;;;46.33;15.68;;;;;;;3.97;81.27;101556.98;1786230;77;22161;-65
2020/12/19 16:01:16;;;;;;;48.48;16.45;;;;;;;3.92;81.36;101555.65;1755614;81;21172;-63
2020/12/19 16:03:43;;;;;;;51.68;15.53;;;;;;;3.93;81.48;101562.30;1755632;81;21749;-67
2020/12/19 16:06:11;;;;;;;47.58;16.15;;;;;;;3.94;81.52;101558.60;1755589;81;21372;-62
2020/12/19 16:08:38;;;;;;;62.23;20.27;;;;;;;3.95;81.54;101564.88;1755583;81;21794;-62
2020/12/19 16:11:06;;;;;;;51.75;16.00;;;;;;;3.90;81.58;101560.30;1693780;83;21277;-62
2020/12/19 16:13:33;;;;;;;46.63;16.42;;;;;;;3.88;81.71;101557.72;1703819;82;21174;-62
2020/12/19 16:16:01;;;;;;;60.23;16.37;;;;;;;3.88;81.84;101556.36;1703893;83;21552;-60
2020/12/19 16:18:28;;;;;;;54.13;16.62;;;;;;;3.88;81.89;101562.28;1703725;82;21462;-61
2020/12/19 16:20:55;;;;;;;57.05;18.27;;;;;;;3.89;82.01;101562.16;1703780;82;21174;-62
2020/12/19 16:23:23;;;;;;;58.55;17.45;;;;;;;3.95;82.09;101565.75;1703900;83;21184;-62
2020/12/19 16:25:50;;;;;;;52.43;18.50;;;;;;;3.99;82.13;101569.06;1704013;83;21174;-62
2020/12/19 16:28:18;;;;;;;50.12;17.60;;;;;;;4.00;82.08;101573.01;1704070;84;21821;-62
2020/12/19 16:30:45;;;;;;;58.00;17.65;;;;;;;4.02;82.10;101566.97;1704097;82;21462;-61
2020/12/19 16:33:13;;;;;;;54.75;18.62;;;;;;;4.02;82.08;101566.97;1704212;84;21795;-61
2020/12/19 16:35:41;;;;;;;56.33;17.75;;;;;;;4.05;82.04;101572.63;1704072;84;21593;-62
2020/12/19 16:38:08;;;;;;;57.98;20.68;;;;;;;4.09;81.99;101574.09;1704022;83;21182;-61
2020/12/19 16:40:45;;;;;;;58.08;18.55;;;;;;;4.09;82.00;101575.45;1704020;83;21394;-60
2020/12/19 16:43:21;;;;;;;47.55;15.68;;;;;;;4.12;81.94;101574.70;1687498;84;21405;-62
2020/12/19 16:45:48;;;;;;;51.53;17.30;;;;;;;4.09;81.87;101575.45;1704140;84;21426;-63
2020/12/19 16:48:17;;;;;;;53.55;18.27;;;;;;;4.09;81.87;101577.67;1704036;84;21440;-63
2020/12/19 16:50:44;;;;;;;51.68;17.73;;;;;;;4.08;81.80;101577.30;1703813;83;21182;-62
2020/12/19 16:53:11;;;;;;;58.23;19.07;;;;;;;4.14;81.84;101580.00;1703813;84;21415;-61
2020/12/19 16:55:39;;;;;;;62.58;18.82;;;;;;;4.16;81.78;101586.16;1705135;82;21475;-62
2020/12/19 16:58:06;;;;;;;53.85;19.37;;;;;;;4.16;81.72;101578.52;1727280;82;21460;-62
2020/12/19 17:00:37;;;;;;;59.33;18.02;;;;;;;4.16;81.72;101581.23;1722700;83;21453;-61
2020/12/19 17:03:04;;;;;;;56.85;18.10;;;;;;;4.17;81.62;101581.59;1722784;82;21461;-64
2020/12/19 17:05:31;;;;;;;57.60;19.05;;;;;;;4.19;81.58;101583.69;1722752;83;21138;-62
2020/12/19 17:07:59;;;;;;;52.67;19.20;;;;;;;4.21;81.59;101583.06;1722916;83;21135;-62
2020/12/19 17:10:27;;;;;;;63.25;21.17;;;;;;;4.24;81.57;101583.67;1722094;82;21392;-62
2020/12/19 17:12:54;;;;;;;60.50;18.45;;;;;;;4.26;81.53;101587.61;1722108;82;21213;-61
2020/12/19 17:15:22;;;;;;;57.27;20.72;;;;;;;4.30;81.46;101582.30;1722164;82;21436;-62
2020/12/19 17:17:49;;;;;;;63.75;23.15;;;;;;;4.30;81.28;101586.37;1722087;82;21206;-65
2020/12/19 17:20:17;;;;;;;58.63;21.95;;;;;;;4.29;81.26;101585.50;1722058;83;21907;-62
2020/12/19 17:22:44;;;;;;;67.67;25.27;;;;;;;4.26;81.19;101583.05;1722097;82;21457;-61
2020/12/19 17:25:12;;;;;;;57.17;18.55;;;;;;;4.25;81.22;101579.97;1722158;82;21945;-61
2020/12/19 17:27:39;;;;;;;67.87;20.17;;;;;;;4.27;81.25;101576.63;1722185;83;21448;-61
2020/12/19 17:30:07;;;;;;;60.45;20.92;;;;;;;4.29;81.19;101581.44;1722358;82;21322;-63
2020/12/19 17:32:35;;;;;;;67.62;23.27;;;;;;;4.28;81.15;101580.20;1722207;82;21317;-61
2020/12/19 17:35:02;;;;;;;65.05;20.25;;;;;;;4.29;81.21;101579.22;1722154;82;21166;-63
2020/12/19 17:37:30;;;;;;;58.78;19.42;;;;;;;4.30;81.21;101577.73;1722231;83;21497;-61
2020/12/19 17:39:57;;;;;;;54.67;17.10;;;;;;;4.28;81.07;101584.27;1722253;83;21202;-60
2020/12/19 17:42:25;;;;;;;54.83;18.67;;;;;;;4.27;81.11;101590.69;1722489;82;21421;-61
2020/12/19 17:44:54;;;;;;;46.68;16.93;;;;;;;4.28;81.02;101586.98;1721050;83;21414;-62
2020/12/19 17:47:21;;;;;;;48.58;15.63;;;;;;;4.25;80.93;101586.75;1722232;83;21389;-61
2020/12/19 17:49:48;;;;;;;46.25;16.45;;;;;;;4.20;80.93;101586.27;1722132;82;21462;-62
2020/12/19 17:52:16;;;;;;;46.60;17.30;;;;;;;4.14;80.97;101579.50;1722133;82;22000;-62
2020/12/19 17:54:43;;;;;;;50.55;15.83;;;;;;;4.10;81.08;101576.69;1722311;82;21583;-62
2020/12/19 17:57:10;;;;;;;56.28;17.48;;;;;;;4.12;81.14;101576.55;1722822;82;21166;-62
2020/12/19 17:59:38;;;;;;;54.77;18.15;;;;;;;4.13;81.17;101572.36;1715519;83;21918;-61
2020/12/19 18:02:06;;;;;;;46.98;17.55;;;;;;;4.16;81.18;101569.02;1715497;83;21381;-61
2020/12/19 18:04:33;;;;;;;58.02;18.50;;;;;;;4.18;81.24;101565.69;1715425;83;21155;-61
2020/12/19 18:07:01;;;;;;;58.52;20.12;;;;;;;4.21;81.30;101572.21;1715956;83;21218;-61
2020/12/19 18:09:29;;;;;;;59.35;20.82;;;;;;;4.22;81.24;101576.66;1717228;83;21913;-61
2020/12/19 18:11:56;;;;;;;54.77;16.95;;;;;;;4.23;81.26;101575.16;1717264;83;21878;-62
2020/12/19 18:14:23;;;;;;;48.42;16.00;;;;;;;4.24;81.14;101573.31;1717056;83;21163;-63
2020/12/19 18:16:51;;;;;;;45.43;15.65;;;;;;;4.23;81.01;101574.30;1717039;83;21477;-64
2020/12/19 18:19:18;;;;;;;47.45;16.32;;;;;;;4.26;81.09;101572.69;1716936;83;21345;-62
2020/12/19 18:21:53;;;;;;;47.40;16.77;;;;;;;4.23;80.94;101577.02;1716561;83;21299;-61
2020/12/19 18:24:21;;;;;;;54.20;15.78;;;;;;;4.18;80.99;101590.09;1716769;83;21959;-60
2020/12/19 18:26:49;;;;;;;50.12;16.67;;;;;;;4.16;81.00;101587.52;1716946;83;21463;-61
2020/12/19 18:29:17;;;;;;;48.70;16.57;;;;;;;4.17;81.03;101589.73;1717002;83;21175;-61
2020/12/19 18:31:44;;;;;;;49.20;16.70;;;;;;;4.16;81.04;101594.30;1717035;83;21775;-60
2020/12/19 18:34:12;;;;;;;47.83;16.93;;;;;;;4.16;81.07;101590.72;1716158;83;21182;-61
2020/12/19 18:36:39;;;;;;;50.40;18.67;;;;;;;4.17;81.18;101597.88;1716145;83;21155;-61
2020/12/19 18:39:06;;;;;;;61.33;19.17;;;;;;;4.16;81.23;101595.66;1716573;83;21151;-61
2020/12/19 18:41:34;;;;;;;49.90;15.58;;;;;;;4.20;81.28;101605.75;1717127;83;21466;-61
2020/12/19 18:44:01;;;;;;;51.48;16.55;;;;;;;4.22;81.25;101596.50;1717189;83;21175;-60
2020/12/19 18:46:29;;;;;;;46.48;16.48;;;;;;;4.22;81.20;101592.92;1717154;83;21310;-61
2020/12/19 18:48:57;;;;;;;45.48;17.00;;;;;;;4.21;81.12;101600.20;1717024;83;21433;-60
2020/12/19 18:51:25;;;;;;;42.53;14.55;;;;;;;4.18;81.12;101603.17;1717103;83;21198;-63
2020/12/19 18:53:52;;;;;;;47.43;16.52;;;;;;;4.19;81.23;101597.25;1717029;83;21360;-61
2020/12/19 18:56:20;;;;;;;51.58;17.65;;;;;;;4.21;81.18;101599.34;1717014;82;21952;-61
2020/12/19 18:58:47;;;;;;;51.33;16.77;;;;;;;4.23;81.23;101598.72;1716655;82;21187;-63
2020/12/19 19:01:14;;;;;;;50.03;17.07;;;;;;;4.24;81.16;101611.30;1716617;82;21439;-62
2020/12/19 19:03:42;;;;;;;44.42;14.87;;;;;;;4.23;81.13;101598.72;1716541;83;21471;-61
2020/12/19 19:06:09;;;;;;;49.45;15.55;;;;;;;4.22;81.09;101605.13;1716628;82;22012;-62
2020/12/19 19:08:36;;;;;;;48.70;17.17;;;;;;;4.20;81.05;101597.62;1716613;83;21525;-61
2020/12/19 19:11:04;;;;;;;50.12;17.12;;;;;;;4.20;81.10;101607.11;1667419;83;21175;-61
2020/12/19 19:13:31;;;;;;;58.92;19.73;;;;;;;4.18;81.02;101603.17;1716554;83;21327;-61
2020/12/19 19:16:00;;;;;;;54.25;16.40;;;;;;;4.13;81.02;101605.41;1716562;82;21172;-61
2020/12/19 19:18:28;;;;;;;55.33;18.23;;;;;;;4.10;81.06;101602.94;1716331;82;21482;-61
2020/12/19 19:20:56;;;;;;;57.43;18.57;;;;;;;4.13;81.12;101607.63;1715855;82;21207;-61
2020/12/19 19:23:23;;;;;;;46.88;16.07;;;;;;;4.12;81.05;101611.32;1714525;82;21172;-62
2020/12/19 19:25:51;;;;;;;47.78;16.93;;;;;;;4.08;81.08;101617.98;1715889;82;21403;-62
2020/12/19 19:28:18;;;;;;;55.85;19.15;;;;;;;4.05;81.04;101615.52;1716691;82;21454;-61
2020/12/19 19:30:46;;;;;;;45.52;13.53;;;;;;;4.03;81.15;101615.28;1716713;82;21317;-63
2020/12/19 19:33:13;;;;;;;39.05;13.30;;;;;;;4.07;81.24;101618.11;1716537;82;21904;-61
2020/12/19 19:35:40;;;;;;;39.10;14.30;;;;;;;4.04;81.15;101615.16;1716578;82;21438;-61
2020/12/19 19:38:13;;;;;;;38.67;14.07;;;;;;;3.99;81.18;101619.23;1716578;82;21231;-61
2020/12/19 19:40:37;;;;;;;48.70;14.58;;;;;;;4.00;81.33;101622.31;1715960;82;21414;-60
2020/12/19 19:43:04;;;;;;;39.88;13.75;;;;;;;4.03;81.33;101620.22;1716611;82;21160;-62
2020/12/19 19:45:32;;;;;;;49.53;15.63;;;;;;;4.06;81.31;101619.96;1716549;82;21211;-62
2020/12/19 19:47:59;;;;;;;51.23;17.77;;;;;;;4.07;81.26;101617.62;1716556;82;21471;-62
2020/12/19 19:50:26;;;;;;;42.75;16.00;;;;;;;4.05;81.22;101625.02;1716600;82;21172;-62
2020/12/19 19:52:54;;;;;;;46.63;16.42;;;;;;;4.05;81.28;101623.66;1716557;82;21441;-62
2020/12/19 19:55:21;;;;;;;44.77;15.20;;;;;;;4.06;81.23;101624.03;1716539;83;21430;-61
2020/12/19 19:57:49;;;;;;;41.40;15.32;;;;;;;4.08;81.23;101615.27;1716575;83;21401;-62
2020/12/19 20:00:16;;;;;;;41.73;15.63;;;;;;;4.08;81.12;101620.70;1716632;82;21910;-62
2020/12/19 20:02:43;;;;;;;46.70;15.68;;;;;;;4.07;81.16;101624.40;1716502;83;21164;-61
2020/12/19 20:05:11;;;;;;;45.12;14.25;;;;;;;4.07;81.24;101616.27;1716615;83;21211;-61
2020/12/19 20:07:38;;;;;;;40.70;13.65;;;;;;;4.08;81.15;101622.05;1716622;82;21184;-62
2020/12/19 20:10:05;;;;;;;41.45;15.05;;;;;;;4.08;81.16;101623.41;1716603;82;22052;-62
2020/12/19 20:12:35;;;;;;;45.88;15.05;;;;;;;4.10;81.20;101620.08;1716690;82;21215;-61
2020/12/19 20:15:03;;;;;;;44.48;15.85;;;;;;;4.15;81.26;101623.77;1716563;82;21791;-60
2020/12/19 20:17:30;;;;;;;47.48;15.32;;;;;;;4.17;81.25;101624.50;1716506;82;21191;-62
2020/12/19 20:19:58;;;;;;;46.88;16.40;;;;;;;4.19;81.12;101629.80;1716651;82;21153;-62
2020/12/19 20:22:25;;;;;;;54.48;17.73;;;;;;;4.20;81.12;101635.10;1716599;83;21427;-61
2020/12/19 20:24:55;;;;;;;50.12;17.98;;;;;;;4.23;81.06;101638.91;1716545;83;21320;-61
2020/12/19 20:27:23;;;;;;;54.70;17.70;;;;;;;4.23;81.03;101639.41;1716577;83;21768;-63
2020/12/19 20:29:51;;;;;;;49.40;16.07;;;;;;;4.19;80.95;101636.09;1716551;82;21485;-62
2020/12/19 20:32:18;;;;;;;49.30;16.42;;;;;;;4.17;80.98;101628.57;1716536;83;21307;-61
2020/12/19 20:34:46;;;;;;;53.15;17.48;;;;;;;4.17;81.02;101627.22;1716520;82;21208;-61
2020/12/19 20:37:14;;;;;;;47.62;17.50;;;;;;;4.19;81.04;101631.16;1716560;82;21740;-61
2020/12/19 20:39:44;;;;;;;47.08;16.25;;;;;;;4.20;81.07;101631.03;1716584;83;21386;-62
2020/12/19 20:42:11;;;;;;;42.50;14.83;;;;;;;4.19;81.08;101628.45;1716585;82;21865;-62
2020/12/19 20:44:39;;;;;;;46.65;15.88;;;;;;;4.17;81.03;101630.42;1716622;82;21417;-61
2020/12/19 20:47:06;;;;;;;53.25;17.80;;;;;;;4.13;80.93;101625.75;1716646;83;21172;-61
2020/12/19 20:49:33;;;;;;;45.85;17.00;;;;;;;4.07;80.99;101626.25;1716680;83;21176;-61
2020/12/19 20:52:01;;;;;;;42.20;14.68;;;;;;;4.03;81.11;101632.42;1716720;82;21926;-62
2020/12/19 20:54:28;;;;;;;51.58;15.90;;;;;;;4.02;81.23;101629.83;1716624;82;21191;-61
2020/12/19 20:56:55;;;;;;;54.25;17.25;;;;;;;3.99;81.25;101628.23;1716689;82;21381;-61
2020/12/19 20:59:23;;;;;;;52.25;17.25;;;;;;;3.98;81.34;101637.84;1714298;82;21375;-61
2020/12/19 21:01:51;;;;;;;44.73;15.63;;;;;;;4.00;81.47;101642.66;1713820;83;21210;-61
2020/12/19 21:04:18;;;;;;;46.65;15.40;;;;;;;4.01;81.47;101646.59;1723888;83;21814;-61
2020/12/19 21:06:47;;;;;;;46.90;15.70;;;;;;;3.98;81.48;101645.49;1723845;83;21170;-61
2020/12/19 21:09:14;;;;;;;46.73;15.20;;;;;;;3.96;81.46;101647.46;1723801;83;21448;-62
2020/12/19 21:11:41;;;;;;;36.15;13.68;;;;;;;3.97;81.48;101646.97;1723773;83;21814;-61
2020/12/19 21:14:09;;;;;;;36.75;13.40;;;;;;;3.98;81.49;101650.05;1723821;82;21955;-62
2020/12/19 21:16:38;;;;;;;34.92;13.10;;;;;;;3.95;81.47;101642.16;1723732;83;21425;-62
2020/12/19 21:19:05;;;;;;;35.33;11.73;;;;;;;3.94;81.50;101648.58;1723845;82;21166;-62
2020/12/19 21:21:33;;;;;;;41.42;12.82;;;;;;;3.94;81.47;101650.80;1723866;83;21396;-62
2020/12/19 21:24:00;;;;;;;40.28;13.18;;;;;;;3.95;81.44;101652.52;1723788;83;21699;-62
2020/12/19 21:26:27;;;;;;;35.38;13.30;;;;;;;3.93;81.46;101652.27;1723850;82;21166;-61
2020/12/19 21:28:54;;;;;;;34.85;12.80;;;;;;;3.91;81.57;101651.53;1723839;83;21944;-61